sensor_id;sensor_type;location;lat;lon;timestamp;P1;durP1;ratioP1;P2;durP2;ratioP2
57832;SDS011;43667;53.036;6.740;2024-03-25T00:00:06;25.42;;;4.05;;
57832;SDS011;43667;53.036;6.740;2024-03-25T00:02:36;23.15;;;3.67;;
57832;SDS011;43667;53.036;6.740;2024-03-25T00:05:02;22.13;;;3.47;;
57832;SDS011;43667;53.036;6.740;2024-03-25T00:07:28;20.85;;;3.40;;
57832;SDS011;43667;53.036;6.740;2024-03-25T00:09:54;22.92;;;3.65;;
57832;SDS011;43667;53.036;6.740;2024-03-25T00:12:20;19.77;;;3.33;;
57832;SDS011;43667;53.036;6.740;2024-03-25T00:14:46;23.27;;;3.35;;
57832;SDS011;43667;53.036;6.740;2024-03-25T00:17:12;23.77;;;4.20;;
57832;SDS011;43667;53.036;6.740;2024-03-25T00:19:39;18.70;;;3.35;;
57832;SDS011;43667;53.036;6.740;2024-03-25T00:22:05;23.58;;;3.15;;
57832;SDS011;43667;53.036;6.740;2024-03-25T00:24:31;21.15;;;3.17;;
57832;SDS011;43667;53.036;6.740;2024-03-25T00:26:57;14.68;;;3.05;;
57832;SDS011;43667;53.036;6.740;2024-03-25T00:29:23;18.90;;;4.00;;
57832;SDS011;43667;53.036;6.740;2024-03-25T00:31:49;24.48;;;2.88;;
57832;SDS011;43667;53.036;6.740;2024-03-25T00:34:15;22.42;;;4.13;;
57832;SDS011;43667;53.036;6.740;2024-03-25T00:36:42;25.70;;;4.32;;
57832;SDS011;43667;53.036;6.740;2024-03-25T00:39:08;21.85;;;3.40;;
57832;SDS011;43667;53.036;6.740;2024-03-25T00:41:35;15.13;;;2.75;;
57832;SDS011;43667;53.036;6.740;2024-03-25T00:44:01;22.70;;;2.97;;
57832;SDS011;43667;53.036;6.740;2024-03-25T00:46:27;14.52;;;2.80;;
57832;SDS011;43667;53.036;6.740;2024-03-25T00:48:53;15.93;;;2.50;;
57832;SDS011;43667;53.036;6.740;2024-03-25T00:51:19;22.52;;;3.53;;
57832;SDS011;43667;53.036;6.740;2024-03-25T00:53:45;18.33;;;3.88;;
57832;SDS011;43667;53.036;6.740;2024-03-25T00:56:12;20.25;;;3.08;;
57832;SDS011;43667;53.036;6.740;2024-03-25T00:58:38;14.80;;;3.17;;
57832;SDS011;43667;53.036;6.740;2024-03-25T01:01:04;16.40;;;2.90;;
57832;SDS011;43667;53.036;6.740;2024-03-25T01:03:30;27.98;;;4.03;;
57832;SDS011;43667;53.036;6.740;2024-03-25T01:05:56;18.10;;;3.30;;
57832;SDS011;43667;53.036;6.740;2024-03-25T01:08:22;14.73;;;3.03;;
57832;SDS011;43667;53.036;6.740;2024-03-25T01:10:48;18.45;;;3.30;;
57832;SDS011;43667;53.036;6.740;2024-03-25T01:13:14;22.23;;;3.53;;
57832;SDS011;43667;53.036;6.740;2024-03-25T01:15:40;17.02;;;3.60;;
57832;SDS011;43667;53.036;6.740;2024-03-25T01:18:07;20.17;;;3.20;;
57832;SDS011;43667;53.036;6.740;2024-03-25T01:20:33;21.20;;;3.60;;
57832;SDS011;43667;53.036;6.740;2024-03-25T01:22:59;19.48;;;3.40;;
57832;SDS011;43667;53.036;6.740;2024-03-25T01:25:25;21.08;;;3.25;;
57832;SDS011;43667;53.036;6.740;2024-03-25T01:27:51;37.67;;;4.10;;
57832;SDS011;43667;53.036;6.740;2024-03-25T01:30:17;19.15;;;3.53;;
57832;SDS011;43667;53.036;6.740;2024-03-25T01:32:44;22.60;;;3.95;;
57832;SDS011;43667;53.036;6.740;2024-03-25T01:35:13;18.60;;;3.17;;
57832;SDS011;43667;53.036;6.740;2024-03-25T01:37:39;21.70;;;3.47;;
57832;SDS011;43667;53.036;6.740;2024-03-25T01:40:05;20.13;;;3.63;;
57832;SDS011;43667;53.036;6.740;2024-03-25T01:42:32;16.80;;;3.10;;
57832;SDS011;43667;53.036;6.740;2024-03-25T01:44:58;18.60;;;3.53;;
57832;SDS011;43667;53.036;6.740;2024-03-25T01:47:24;17.45;;;3.33;;
57832;SDS011;43667;53.036;6.740;2024-03-25T01:49:50;19.88;;;4.13;;
57832;SDS011;43667;53.036;6.740;2024-03-25T01:52:19;20.55;;;3.40;;
57832;SDS011;43667;53.036;6.740;2024-03-25T01:54:45;22.73;;;4.07;;
57832;SDS011;43667;53.036;6.740;2024-03-25T01:57:11;25.63;;;3.55;;
57832;SDS011;43667;53.036;6.740;2024-03-25T01:59:37;18.58;;;3.00;;
57832;SDS011;43667;53.036;6.740;2024-03-25T02:02:04;17.85;;;2.88;;
57832;SDS011;43667;53.036;6.740;2024-03-25T02:04:31;22.30;;;3.83;;
57832;SDS011;43667;53.036;6.740;2024-03-25T02:06:57;20.85;;;3.15;;
57832;SDS011;43667;53.036;6.740;2024-03-25T02:09:24;24.65;;;4.57;;
57832;SDS011;43667;53.036;6.740;2024-03-25T02:11:51;22.10;;;3.50;;
57832;SDS011;43667;53.036;6.740;2024-03-25T02:14:17;18.95;;;3.53;;
57832;SDS011;43667;53.036;6.740;2024-03-25T02:16:43;19.13;;;3.50;;
57832;SDS011;43667;53.036;6.740;2024-03-25T02:19:09;17.33;;;3.22;;
57832;SDS011;43667;53.036;6.740;2024-03-25T02:21:37;23.73;;;3.63;;
57832;SDS011;43667;53.036;6.740;2024-03-25T02:24:03;25.92;;;3.72;;
57832;SDS011;43667;53.036;6.740;2024-03-25T02:26:31;31.38;;;3.70;;
57832;SDS011;43667;53.036;6.740;2024-03-25T02:28:58;22.02;;;3.08;;
57832;SDS011;43667;53.036;6.740;2024-03-25T02:31:24;21.08;;;3.90;;
57832;SDS011;43667;53.036;6.740;2024-03-25T02:33:50;16.92;;;2.95;;
57832;SDS011;43667;53.036;6.740;2024-03-25T02:36:16;22.13;;;3.47;;
57832;SDS011;43667;53.036;6.740;2024-03-25T02:38:42;20.83;;;4.15;;
57832;SDS011;43667;53.036;6.740;2024-03-25T02:41:08;20.08;;;3.95;;
57832;SDS011;43667;53.036;6.740;2024-03-25T02:43:34;25.48;;;3.38;;
57832;SDS011;43667;53.036;6.740;2024-03-25T02:46:00;23.85;;;3.28;;
57832;SDS011;43667;53.036;6.740;2024-03-25T02:48:26;24.08;;;3.38;;
57832;SDS011;43667;53.036;6.740;2024-03-25T02:50:52;22.52;;;3.33;;
57832;SDS011;43667;53.036;6.740;2024-03-25T02:53:18;17.98;;;3.58;;
57832;SDS011;43667;53.036;6.740;2024-03-25T02:55:44;18.38;;;3.88;;
57832;SDS011;43667;53.036;6.740;2024-03-25T02:58:10;23.92;;;3.22;;
57832;SDS011;43667;53.036;6.740;2024-03-25T03:00:36;22.05;;;3.20;;
57832;SDS011;43667;53.036;6.740;2024-03-25T03:03:03;17.00;;;3.38;;
57832;SDS011;43667;53.036;6.740;2024-03-25T03:05:29;17.48;;;3.70;;
57832;SDS011;43667;53.036;6.740;2024-03-25T03:07:55;22.50;;;3.90;;
57832;SDS011;43667;53.036;6.740;2024-03-25T03:10:21;23.27;;;2.97;;
57832;SDS011;43667;53.036;6.740;2024-03-25T03:12:47;21.35;;;2.67;;
57832;SDS011;43667;53.036;6.740;2024-03-25T03:15:13;19.38;;;3.33;;
57832;SDS011;43667;53.036;6.740;2024-03-25T03:17:40;18.70;;;3.22;;
57832;SDS011;43667;53.036;6.740;2024-03-25T03:20:06;13.93;;;3.13;;
57832;SDS011;43667;53.036;6.740;2024-03-25T03:22:32;23.80;;;3.08;;
57832;SDS011;43667;53.036;6.740;2024-03-25T03:24:58;19.55;;;3.95;;
57832;SDS011;43667;53.036;6.740;2024-03-25T03:27:24;20.73;;;3.30;;
57832;SDS011;43667;53.036;6.740;2024-03-25T03:29:50;25.65;;;3.45;;
57832;SDS011;43667;53.036;6.740;2024-03-25T03:32:16;20.80;;;3.08;;
57832;SDS011;43667;53.036;6.740;2024-03-25T03:34:42;24.63;;;3.63;;
57832;SDS011;43667;53.036;6.740;2024-03-25T03:37:10;22.25;;;3.45;;
57832;SDS011;43667;53.036;6.740;2024-03-25T03:39:36;18.08;;;3.35;;
57832;SDS011;43667;53.036;6.740;2024-03-25T03:42:02;23.40;;;2.95;;
57832;SDS011;43667;53.036;6.740;2024-03-25T03:44:28;20.48;;;3.50;;
57832;SDS011;43667;53.036;6.740;2024-03-25T03:46:54;28.20;;;3.60;;
57832;SDS011;43667;53.036;6.740;2024-03-25T03:49:20;17.00;;;3.15;;
57832;SDS011;43667;53.036;6.740;2024-03-25T03:51:46;20.52;;;3.25;;
57832;SDS011;43667;53.036;6.740;2024-03-25T03:54:12;19.00;;;2.95;;
57832;SDS011;43667;53.036;6.740;2024-03-25T03:56:38;27.88;;;4.45;;
57832;SDS011;43667;53.036;6.740;2024-03-25T03:59:04;20.48;;;3.85;;
57832;SDS011;43667;53.036;6.740;2024-03-25T04:01:30;23.92;;;3.28;;
57832;SDS011;43667;53.036;6.740;2024-03-25T04:03:56;20.00;;;3.15;;
57832;SDS011;43667;53.036;6.740;2024-03-25T04:06:22;19.38;;;3.15;;
57832;SDS011;43667;53.036;6.740;2024-03-25T04:08:48;19.77;;;3.08;;
57832;SDS011;43667;53.036;6.740;2024-03-25T04:11:14;14.50;;;2.65;;
57832;SDS011;43667;53.036;6.740;2024-03-25T04:13:40;12.75;;;2.28;;
57832;SDS011;43667;53.036;6.740;2024-03-25T04:16:06;19.30;;;2.92;;
57832;SDS011;43667;53.036;6.740;2024-03-25T04:18:33;14.52;;;3.13;;
57832;SDS011;43667;53.036;6.740;2024-03-25T04:20:59;21.42;;;2.58;;
57832;SDS011;43667;53.036;6.740;2024-03-25T04:23:25;20.20;;;3.40;;
57832;SDS011;43667;53.036;6.740;2024-03-25T04:25:51;17.90;;;3.03;;
57832;SDS011;43667;53.036;6.740;2024-03-25T04:28:18;18.90;;;3.00;;
57832;SDS011;43667;53.036;6.740;2024-03-25T04:30:50;14.93;;;2.53;;
57832;SDS011;43667;53.036;6.740;2024-03-25T04:33:17;19.15;;;2.95;;
57832;SDS011;43667;53.036;6.740;2024-03-25T04:35:44;15.60;;;2.45;;
57832;SDS011;43667;53.036;6.740;2024-03-25T04:38:10;19.42;;;2.67;;
57832;SDS011;43667;53.036;6.740;2024-03-25T04:40:36;15.57;;;3.00;;
57832;SDS011;43667;53.036;6.740;2024-03-25T04:43:02;14.77;;;2.70;;
57832;SDS011;43667;53.036;6.740;2024-03-25T04:45:28;16.30;;;3.08;;
57832;SDS011;43667;53.036;6.740;2024-03-25T04:47:54;18.45;;;2.80;;
57832;SDS011;43667;53.036;6.740;2024-03-25T04:50:20;21.88;;;3.17;;
57832;SDS011;43667;53.036;6.740;2024-03-25T04:52:46;13.90;;;2.42;;
57832;SDS011;43667;53.036;6.740;2024-03-25T04:55:12;15.02;;;2.22;;
57832;SDS011;43667;53.036;6.740;2024-03-25T04:57:38;21.50;;;3.53;;
57832;SDS011;43667;53.036;6.740;2024-03-25T05:00:04;21.77;;;2.75;;
57832;SDS011;43667;53.036;6.740;2024-03-25T05:02:32;21.02;;;4.38;;
57832;SDS011;43667;53.036;6.740;2024-03-25T05:04:58;22.05;;;3.75;;
57832;SDS011;43667;53.036;6.740;2024-03-25T05:07:24;16.63;;;2.90;;
57832;SDS011;43667;53.036;6.740;2024-03-25T05:09:50;16.90;;;2.92;;
57832;SDS011;43667;53.036;6.740;2024-03-25T05:12:16;24.30;;;4.22;;
57832;SDS011;43667;53.036;6.740;2024-03-25T05:14:42;18.73;;;3.10;;
57832;SDS011;43667;53.036;6.740;2024-03-25T05:17:08;17.50;;;2.65;;
57832;SDS011;43667;53.036;6.740;2024-03-25T05:19:34;18.50;;;2.83;;
57832;SDS011;43667;53.036;6.740;2024-03-25T05:22:00;21.50;;;2.80;;
57832;SDS011;43667;53.036;6.740;2024-03-25T05:24:26;14.65;;;3.45;;
57832;SDS011;43667;53.036;6.740;2024-03-25T05:26:53;14.18;;;2.67;;
57832;SDS011;43667;53.036;6.740;2024-03-25T05:29:19;17.52;;;3.35;;
57832;SDS011;43667;53.036;6.740;2024-03-25T05:31:55;15.60;;;3.70;;
57832;SDS011;43667;53.036;6.740;2024-03-25T05:34:21;17.25;;;3.50;;
57832;SDS011;43667;53.036;6.740;2024-03-25T05:36:47;18.10;;;2.42;;
57832;SDS011;43667;53.036;6.740;2024-03-25T05:39:13;15.70;;;3.08;;
57832;SDS011;43667;53.036;6.740;2024-03-25T05:41:39;17.88;;;2.78;;
57832;SDS011;43667;53.036;6.740;2024-03-25T05:44:05;11.43;;;1.95;;
57832;SDS011;43667;53.036;6.740;2024-03-25T05:46:31;20.58;;;3.10;;
57832;SDS011;43667;53.036;6.740;2024-03-25T05:49:00;12.82;;;2.25;;
57832;SDS011;43667;53.036;6.740;2024-03-25T05:51:26;18.13;;;2.80;;
57832;SDS011;43667;53.036;6.740;2024-03-25T05:53:52;17.42;;;2.40;;
57832;SDS011;43667;53.036;6.740;2024-03-25T05:56:18;19.25;;;2.55;;
57832;SDS011;43667;53.036;6.740;2024-03-25T05:58:44;24.70;;;3.50;;
57832;SDS011;43667;53.036;6.740;2024-03-25T06:01:10;12.15;;;2.42;;
57832;SDS011;43667;53.036;6.740;2024-03-25T06:03:36;15.95;;;2.28;;
57832;SDS011;43667;53.036;6.740;2024-03-25T06:06:03;18.50;;;2.80;;
57832;SDS011;43667;53.036;6.740;2024-03-25T06:08:29;16.02;;;2.58;;
57832;SDS011;43667;53.036;6.740;2024-03-25T06:11:00;14.40;;;3.28;;
57832;SDS011;43667;53.036;6.740;2024-03-25T06:13:26;18.90;;;2.40;;
57832;SDS011;43667;53.036;6.740;2024-03-25T06:15:52;17.05;;;2.90;;
57832;SDS011;43667;53.036;6.740;2024-03-25T06:18:18;18.05;;;2.60;;
57832;SDS011;43667;53.036;6.740;2024-03-25T06:20:44;15.07;;;2.50;;
57832;SDS011;43667;53.036;6.740;2024-03-25T06:23:10;17.33;;;2.78;;
57832;SDS011;43667;53.036;6.740;2024-03-25T06:25:36;15.13;;;2.40;;
57832;SDS011;43667;53.036;6.740;2024-03-25T06:28:03;20.92;;;2.75;;
57832;SDS011;43667;53.036;6.740;2024-03-25T06:30:29;17.85;;;3.20;;
57832;SDS011;43667;53.036;6.740;2024-03-25T06:33:13;16.92;;;3.00;;
57832;SDS011;43667;53.036;6.740;2024-03-25T06:35:58;16.15;;;2.70;;
57832;SDS011;43667;53.036;6.740;2024-03-25T06:38:24;12.18;;;2.22;;
57832;SDS011;43667;53.036;6.740;2024-03-25T06:40:50;19.08;;;3.55;;
57832;SDS011;43667;53.036;6.740;2024-03-25T06:43:16;17.48;;;2.88;;
57832;SDS011;43667;53.036;6.740;2024-03-25T06:45:43;13.95;;;2.97;;
57832;SDS011;43667;53.036;6.740;2024-03-25T06:48:09;18.58;;;3.17;;
57832;SDS011;43667;53.036;6.740;2024-03-25T06:50:35;15.93;;;2.70;;
57832;SDS011;43667;53.036;6.740;2024-03-25T06:53:01;14.27;;;2.85;;
57832;SDS011;43667;53.036;6.740;2024-03-25T06:55:28;15.35;;;2.80;;
57832;SDS011;43667;53.036;6.740;2024-03-25T06:57:54;20.08;;;3.25;;
57832;SDS011;43667;53.036;6.740;2024-03-25T07:00:20;14.77;;;2.53;;
57832;SDS011;43667;53.036;6.740;2024-03-25T07:02:47;17.67;;;3.55;;
57832;SDS011;43667;53.036;6.740;2024-03-25T07:05:13;17.65;;;2.65;;
57832;SDS011;43667;53.036;6.740;2024-03-25T07:07:39;18.33;;;3.13;;
57832;SDS011;43667;53.036;6.740;2024-03-25T07:10:05;22.35;;;3.15;;
57832;SDS011;43667;53.036;6.740;2024-03-25T07:12:31;20.15;;;3.40;;
57832;SDS011;43667;53.036;6.740;2024-03-25T07:14:57;17.67;;;3.05;;
57832;SDS011;43667;53.036;6.740;2024-03-25T07:17:24;16.65;;;3.03;;
57832;SDS011;43667;53.036;6.740;2024-03-25T07:19:51;17.30;;;3.13;;
57832;SDS011;43667;53.036;6.740;2024-03-25T07:22:17;16.30;;;3.33;;
57832;SDS011;43667;53.036;6.740;2024-03-25T07:24:43;21.80;;;3.10;;
57832;SDS011;43667;53.036;6.740;2024-03-25T07:27:09;17.13;;;2.80;;
57832;SDS011;43667;53.036;6.740;2024-03-25T07:29:36;16.88;;;3.30;;
57832;SDS011;43667;53.036;6.740;2024-03-25T07:32:02;20.30;;;3.45;;
57832;SDS011;43667;53.036;6.740;2024-03-25T07:34:28;19.63;;;3.47;;
57832;SDS011;43667;53.036;6.740;2024-03-25T07:36:54;22.08;;;5.15;;
57832;SDS011;43667;53.036;6.740;2024-03-25T07:39:20;15.75;;;3.13;;
57832;SDS011;43667;53.036;6.740;2024-03-25T07:41:49;20.48;;;3.60;;
57832;SDS011;43667;53.036;6.740;2024-03-25T07:44:15;11.65;;;2.92;;
57832;SDS011;43667;53.036;6.740;2024-03-25T07:46:41;13.88;;;3.25;;
57832;SDS011;43667;53.036;6.740;2024-03-25T07:49:07;16.42;;;2.83;;
57832;SDS011;43667;53.036;6.740;2024-03-25T07:51:33;15.60;;;3.03;;
57832;SDS011;43667;53.036;6.740;2024-03-25T07:54:01;11.48;;;2.53;;
57832;SDS011;43667;53.036;6.740;2024-03-25T07:56:28;16.27;;;2.63;;
57832;SDS011;43667;53.036;6.740;2024-03-25T07:58:57;11.77;;;2.05;;
57832;SDS011;43667;53.036;6.740;2024-03-25T08:01:24;13.35;;;2.10;;
57832;SDS011;43667;53.036;6.740;2024-03-25T08:03:50;17.75;;;2.97;;
57832;SDS011;43667;53.036;6.740;2024-03-25T08:06:16;14.38;;;2.67;;
57832;SDS011;43667;53.036;6.740;2024-03-25T08:08:43;12.65;;;2.67;;
57832;SDS011;43667;53.036;6.740;2024-03-25T08:11:09;17.60;;;2.88;;
57832;SDS011;43667;53.036;6.740;2024-03-25T08:13:35;9.30;;;2.00;;
57832;SDS011;43667;53.036;6.740;2024-03-25T08:16:00;14.63;;;2.38;;
57832;SDS011;43667;53.036;6.740;2024-03-25T08:18:27;14.43;;;2.30;;
57832;SDS011;43667;53.036;6.740;2024-03-25T08:20:53;15.05;;;2.97;;
57832;SDS011;43667;53.036;6.740;2024-03-25T08:23:19;18.45;;;3.05;;
57832;SDS011;43667;53.036;6.740;2024-03-25T08:25:45;15.52;;;3.25;;
57832;SDS011;43667;53.036;6.740;2024-03-25T08:28:11;12.70;;;2.10;;
57832;SDS011;43667;53.036;6.740;2024-03-25T08:30:37;12.32;;;2.65;;
57832;SDS011;43667;53.036;6.740;2024-03-25T08:33:03;11.75;;;2.28;;
57832;SDS011;43667;53.036;6.740;2024-03-25T08:35:30;14.38;;;2.40;;
57832;SDS011;43667;53.036;6.740;2024-03-25T08:37:56;13.35;;;2.40;;
57832;SDS011;43667;53.036;6.740;2024-03-25T08:40:21;17.48;;;1.95;;
57832;SDS011;43667;53.036;6.740;2024-03-25T08:42:47;14.02;;;2.42;;
57832;SDS011;43667;53.036;6.740;2024-03-25T08:45:13;10.73;;;2.13;;
57832;SDS011;43667;53.036;6.740;2024-03-25T08:47:39;15.15;;;2.50;;
57832;SDS011;43667;53.036;6.740;2024-03-25T08:50:07;19.40;;;3.50;;
57832;SDS011;43667;53.036;6.740;2024-03-25T08:52:33;15.25;;;2.70;;
57832;SDS011;43667;53.036;6.740;2024-03-25T08:54:59;10.63;;;1.88;;
57832;SDS011;43667;53.036;6.740;2024-03-25T08:57:25;8.07;;;1.90;;
57832;SDS011;43667;53.036;6.740;2024-03-25T08:59:51;8.13;;;1.50;;
57832;SDS011;43667;53.036;6.740;2024-03-25T09:02:17;10.32;;;1.63;;
57832;SDS011;43667;53.036;6.740;2024-03-25T09:04:43;14.60;;;2.90;;
57832;SDS011;43667;53.036;6.740;2024-03-25T09:07:09;8.48;;;1.17;;
57832;SDS011;43667;53.036;6.740;2024-03-25T09:09:35;11.98;;;2.50;;
57832;SDS011;43667;53.036;6.740;2024-03-25T09:12:20;13.48;;;1.90;;
57832;SDS011;43667;53.036;6.740;2024-03-25T09:14:46;9.77;;;1.65;;
57832;SDS011;43667;53.036;6.740;2024-03-25T09:17:12;11.25;;;2.10;;
57832;SDS011;43667;53.036;6.740;2024-03-25T09:19:38;8.70;;;1.42;;
57832;SDS011;43667;53.036;6.740;2024-03-25T09:22:04;10.77;;;1.80;;
57832;SDS011;43667;53.036;6.740;2024-03-25T09:24:30;9.27;;;1.35;;
57832;SDS011;43667;53.036;6.740;2024-03-25T09:26:56;9.85;;;1.52;;
57832;SDS011;43667;53.036;6.740;2024-03-25T09:29:22;10.35;;;1.45;;
57832;SDS011;43667;53.036;6.740;2024-03-25T09:31:48;6.50;;;1.58;;
57832;SDS011;43667;53.036;6.740;2024-03-25T09:34:14;10.40;;;1.70;;
57832;SDS011;43667;53.036;6.740;2024-03-25T09:36:40;6.95;;;1.35;;
57832;SDS011;43667;53.036;6.740;2024-03-25T09:39:06;10.63;;;2.20;;
57832;SDS011;43667;53.036;6.740;2024-03-25T09:41:32;9.68;;;1.60;;
57832;SDS011;43667;53.036;6.740;2024-03-25T09:44:01;12.02;;;1.70;;
57832;SDS011;43667;53.036;6.740;2024-03-25T09:46:30;12.23;;;1.65;;
57832;SDS011;43667;53.036;6.740;2024-03-25T09:48:56;10.20;;;2.00;;
57832;SDS011;43667;53.036;6.740;2024-03-25T09:51:22;10.45;;;1.58;;
57832;SDS011;43667;53.036;6.740;2024-03-25T09:53:48;9.18;;;1.48;;
57832;SDS011;43667;53.036;6.740;2024-03-25T09:56:14;9.48;;;1.67;;
57832;SDS011;43667;53.036;6.740;2024-03-25T09:58:40;11.23;;;1.63;;
57832;SDS011;43667;53.036;6.740;2024-03-25T10:01:07;11.02;;;1.90;;
57832;SDS011;43667;53.036;6.740;2024-03-25T10:03:33;10.98;;;1.55;;
57832;SDS011;43667;53.036;6.740;2024-03-25T10:06:00;9.10;;;1.40;;
57832;SDS011;43667;53.036;6.740;2024-03-25T10:08:26;8.98;;;1.67;;
57832;SDS011;43667;53.036;6.740;2024-03-25T10:10:55;9.73;;;1.83;;
57832;SDS011;43667;53.036;6.740;2024-03-25T10:13:21;8.07;;;1.65;;
57832;SDS011;43667;53.036;6.740;2024-03-25T10:15:47;8.00;;;1.63;;
57832;SDS011;43667;53.036;6.740;2024-03-25T10:18:13;7.40;;;1.42;;
57832;SDS011;43667;53.036;6.740;2024-03-25T10:20:49;12.05;;;1.58;;
57832;SDS011;43667;53.036;6.740;2024-03-25T10:23:19;11.85;;;1.70;;
57832;SDS011;43667;53.036;6.740;2024-03-25T10:25:47;8.10;;;1.17;;
57832;SDS011;43667;53.036;6.740;2024-03-25T10:28:13;10.90;;;1.60;;
57832;SDS011;43667;53.036;6.740;2024-03-25T10:30:40;11.40;;;1.85;;
57832;SDS011;43667;53.036;6.740;2024-03-25T10:33:06;14.25;;;2.63;;
57832;SDS011;43667;53.036;6.740;2024-03-25T10:35:36;11.20;;;1.58;;
57832;SDS011;43667;53.036;6.740;2024-03-25T10:38:06;10.35;;;1.92;;
57832;SDS011;43667;53.036;6.740;2024-03-25T10:40:36;8.25;;;1.88;;
57832;SDS011;43667;53.036;6.740;2024-03-25T10:43:03;13.57;;;1.83;;
57832;SDS011;43667;53.036;6.740;2024-03-25T10:45:31;11.23;;;1.90;;
57832;SDS011;43667;53.036;6.740;2024-03-25T10:47:59;8.35;;;1.73;;
57832;SDS011;43667;53.036;6.740;2024-03-25T10:50:28;13.93;;;1.75;;
57832;SDS011;43667;53.036;6.740;2024-03-25T10:52:54;12.35;;;1.35;;
57832;SDS011;43667;53.036;6.740;2024-03-25T10:55:21;5.70;;;1.42;;
57832;SDS011;43667;53.036;6.740;2024-03-25T10:57:47;8.85;;;1.45;;
57832;SDS011;43667;53.036;6.740;2024-03-25T11:00:14;10.55;;;1.75;;
57832;SDS011;43667;53.036;6.740;2024-03-25T11:02:42;10.70;;;2.13;;
57832;SDS011;43667;53.036;6.740;2024-03-25T11:05:09;9.95;;;1.65;;
57832;SDS011;43667;53.036;6.740;2024-03-25T11:07:35;11.48;;;2.33;;
57832;SDS011;43667;53.036;6.740;2024-03-25T11:10:07;9.85;;;2.33;;
57832;SDS011;43667;53.036;6.740;2024-03-25T11:12:37;9.10;;;1.58;;
57832;SDS011;43667;53.036;6.740;2024-03-25T11:15:04;13.18;;;2.08;;
57832;SDS011;43667;53.036;6.740;2024-03-25T11:17:31;10.55;;;2.15;;
57832;SDS011;43667;53.036;6.740;2024-03-25T11:20:07;10.93;;;2.05;;
57832;SDS011;43667;53.036;6.740;2024-03-25T11:22:35;7.90;;;1.73;;
57832;SDS011;43667;53.036;6.740;2024-03-25T11:25:05;10.23;;;1.65;;
57832;SDS011;43667;53.036;6.740;2024-03-25T11:27:33;10.38;;;2.17;;
57832;SDS011;43667;53.036;6.740;2024-03-25T11:29:59;8.27;;;2.58;;
57832;SDS011;43667;53.036;6.740;2024-03-25T11:32:26;13.13;;;1.67;;
57832;SDS011;43667;53.036;6.740;2024-03-25T11:34:53;10.95;;;2.17;;
57832;SDS011;43667;53.036;6.740;2024-03-25T11:37:19;8.52;;;1.77;;
57832;SDS011;43667;53.036;6.740;2024-03-25T11:39:45;10.75;;;1.77;;
57832;SDS011;43667;53.036;6.740;2024-03-25T11:42:12;10.40;;;1.48;;
57832;SDS011;43667;53.036;6.740;2024-03-25T11:44:38;9.48;;;1.80;;
57832;SDS011;43667;53.036;6.740;2024-03-25T11:47:07;6.63;;;1.42;;
57832;SDS011;43667;53.036;6.740;2024-03-25T11:49:36;10.65;;;1.92;;
57832;SDS011;43667;53.036;6.740;2024-03-25T11:52:02;9.65;;;1.73;;
57832;SDS011;43667;53.036;6.740;2024-03-25T11:54:28;9.52;;;2.10;;
57832;SDS011;43667;53.036;6.740;2024-03-25T11:56:54;9.73;;;1.98;;
57832;SDS011;43667;53.036;6.740;2024-03-25T11:59:21;9.38;;;1.92;;
57832;SDS011;43667;53.036;6.740;2024-03-25T12:01:47;9.18;;;1.77;;
57832;SDS011;43667;53.036;6.740;2024-03-25T12:04:17;10.95;;;1.48;;
57832;SDS011;43667;53.036;6.740;2024-03-25T12:06:43;10.18;;;1.83;;
57832;SDS011;43667;53.036;6.740;2024-03-25T12:09:13;7.70;;;2.03;;
57832;SDS011;43667;53.036;6.740;2024-03-25T12:11:57;6.38;;;1.42;;
57832;SDS011;43667;53.036;6.740;2024-03-25T12:14:24;9.80;;;1.67;;
57832;SDS011;43667;53.036;6.740;2024-03-25T12:16:54;10.20;;;2.05;;
57832;SDS011;43667;53.036;6.740;2024-03-25T12:19:21;8.90;;;1.65;;
57832;SDS011;43667;53.036;6.740;2024-03-25T12:21:50;9.60;;;1.67;;
57832;SDS011;43667;53.036;6.740;2024-03-25T12:24:16;10.13;;;1.77;;
57832;SDS011;43667;53.036;6.740;2024-03-25T12:26:43;10.07;;;1.85;;
57832;SDS011;43667;53.036;6.740;2024-03-25T12:29:09;9.23;;;1.73;;
57832;SDS011;43667;53.036;6.740;2024-03-25T12:31:35;9.20;;;2.08;;
57832;SDS011;43667;53.036;6.740;2024-03-25T12:34:01;9.77;;;1.80;;
57832;SDS011;43667;53.036;6.740;2024-03-25T12:36:27;8.82;;;1.67;;
57832;SDS011;43667;53.036;6.740;2024-03-25T12:38:59;7.65;;;1.65;;
57832;SDS011;43667;53.036;6.740;2024-03-25T12:41:25;9.85;;;1.40;;
57832;SDS011;43667;53.036;6.740;2024-03-25T12:43:51;9.20;;;1.83;;
57832;SDS011;43667;53.036;6.740;2024-03-25T12:46:17;10.65;;;1.65;;
57832;SDS011;43667;53.036;6.740;2024-03-25T12:48:43;8.98;;;1.83;;
57832;SDS011;43667;53.036;6.740;2024-03-25T12:51:15;7.10;;;1.52;;
57832;SDS011;43667;53.036;6.740;2024-03-25T12:53:42;10.38;;;1.77;;
57832;SDS011;43667;53.036;6.740;2024-03-25T12:56:08;8.07;;;1.77;;
57832;SDS011;43667;53.036;6.740;2024-03-25T12:58:34;9.00;;;1.58;;
57832;SDS011;43667;53.036;6.740;2024-03-25T13:01:00;7.18;;;1.48;;
57832;SDS011;43667;53.036;6.740;2024-03-25T13:03:26;7.85;;;1.65;;
57832;SDS011;43667;53.036;6.740;2024-03-25T13:05:52;7.63;;;1.40;;
57832;SDS011;43667;53.036;6.740;2024-03-25T13:08:19;12.38;;;2.58;;
57832;SDS011;43667;53.036;6.740;2024-03-25T13:10:46;9.35;;;1.60;;
57832;SDS011;43667;53.036;6.740;2024-03-25T13:13:12;9.05;;;1.83;;
57832;SDS011;43667;53.036;6.740;2024-03-25T13:15:38;9.40;;;1.60;;
57832;SDS011;43667;53.036;6.740;2024-03-25T13:18:04;15.18;;;2.45;;
57832;SDS011;43667;53.036;6.740;2024-03-25T13:20:30;10.73;;;2.45;;
57832;SDS011;43667;53.036;6.740;2024-03-25T13:22:57;10.75;;;1.50;;
57832;SDS011;43667;53.036;6.740;2024-03-25T13:25:25;12.00;;;2.25;;
57832;SDS011;43667;53.036;6.740;2024-03-25T13:27:54;9.98;;;2.10;;
57832;SDS011;43667;53.036;6.740;2024-03-25T13:30:20;7.95;;;1.58;;
57832;SDS011;43667;53.036;6.740;2024-03-25T13:32:47;10.35;;;1.70;;
57832;SDS011;43667;53.036;6.740;2024-03-25T13:35:14;9.90;;;1.70;;
57832;SDS011;43667;53.036;6.740;2024-03-25T13:37:40;10.07;;;1.88;;
57832;SDS011;43667;53.036;6.740;2024-03-25T13:40:06;9.27;;;1.85;;
57832;SDS011;43667;53.036;6.740;2024-03-25T13:42:34;8.43;;;1.70;;
57832;SDS011;43667;53.036;6.740;2024-03-25T13:45:00;11.18;;;2.00;;
57832;SDS011;43667;53.036;6.740;2024-03-25T13:47:26;8.07;;;1.77;;
57832;SDS011;43667;53.036;6.740;2024-03-25T13:50:04;11.80;;;1.70;;
57832;SDS011;43667;53.036;6.740;2024-03-25T13:52:34;8.32;;;1.42;;
57832;SDS011;43667;53.036;6.740;2024-03-25T13:55:00;10.15;;;2.50;;
57832;SDS011;43667;53.036;6.740;2024-03-25T13:57:26;9.93;;;1.73;;
57832;SDS011;43667;53.036;6.740;2024-03-25T13:59:52;9.80;;;2.08;;
57832;SDS011;43667;53.036;6.740;2024-03-25T14:02:18;6.72;;;1.63;;
57832;SDS011;43667;53.036;6.740;2024-03-25T14:04:44;8.10;;;1.55;;
57832;SDS011;43667;53.036;6.740;2024-03-25T14:07:10;9.88;;;2.53;;
57832;SDS011;43667;53.036;6.740;2024-03-25T14:09:36;16.40;;;2.30;;
57832;SDS011;43667;53.036;6.740;2024-03-25T14:12:02;7.95;;;1.80;;
57832;SDS011;43667;53.036;6.740;2024-03-25T14:14:29;9.00;;;1.88;;
57832;SDS011;43667;53.036;6.740;2024-03-25T14:16:55;10.43;;;1.73;;
57832;SDS011;43667;53.036;6.740;2024-03-25T14:19:21;11.13;;;1.52;;
57832;SDS011;43667;53.036;6.740;2024-03-25T14:21:50;7.80;;;1.65;;
57832;SDS011;43667;53.036;6.740;2024-03-25T14:24:16;11.38;;;2.00;;
57832;SDS011;43667;53.036;6.740;2024-03-25T14:26:45;10.90;;;1.65;;
57832;SDS011;43667;53.036;6.740;2024-03-25T14:29:11;13.32;;;2.05;;
57832;SDS011;43667;53.036;6.740;2024-03-25T14:31:37;11.80;;;1.83;;
57832;SDS011;43667;53.036;6.740;2024-03-25T14:34:03;11.15;;;2.00;;